| time (UTC) | temp F | wind direction | speed MPH | gust MPH | rain 1hr in | rain 24hr in | rain mn in | humidity % | barometer mb |
| 20260509000421 | 64 | 135 | 0.0 | 0.0 | 0.00 | 0.00 | 0.00 | 52 | 1013.1 |
| 20260508235917 | 64 | 130 | 0.0 | 0.0 | 0.00 | 0.00 | 0.00 | 54 | 1013.1 |
| 20260508235415 | 65 | 127 | 0.0 | 0.0 | 0.00 | 0.00 | 0.00 | 54 | 1013.2 |
| 20260508234911 | 65 | 126 | 0.0 | 0.0 | 0.00 | 0.00 | 0.00 | 52 | 1013.2 |
| 20260508234408 | 65 | 135 | 0.0 | 0.0 | 0.00 | 0.00 | 0.00 | 51 | 1013.4 |
| 20260508233906 | 66 | 131 | 0.0 | 0.0 | 0.00 | 0.00 | 0.00 | 52 | 1013.2 |
| 20260508233406 | 66 | 131 | 0.0 | 0.0 | 0.00 | 0.00 | 0.00 | 51 | 1013.4 |
| 20260508232902 | 66 | 131 | 0.0 | 0.0 | 0.00 | 0.00 | 0.00 | 51 | 1013.2 |
| 20260508232358 | 66 | 81 | 0.0 | 1.0 | 0.00 | 0.00 | 0.00 | 49 | 1013.1 |
| 20260508231856 | 67 | 158 | 0.0 | 1.0 | 0.00 | 0.00 | 0.00 | 52 | 1013.1 |
| 20260508231353 | 67 | 127 | 0.0 | 1.0 | 0.00 | 0.00 | 0.00 | 51 | 1013.4 |
| 20260508230849 | 67 | 153 | 1.0 | 1.0 | 0.00 | 0.00 | 0.00 | 47 | 1013.1 |
| 20260508230346 | 67 | 163 | 1.0 | 1.0 | 0.00 | 0.00 | 0.00 | 47 | 1013.1 |
| 20260508225843 | 68 | 113 | 0.0 | 1.0 | 0.00 | 0.00 | 0.00 | 49 | 1013.1 |
| 20260508225340 | 68 | 73 | 2.0 | 2.0 | 0.00 | 0.00 | 0.00 | 51 | 1013.0 |
| 20260508224838 | 68 | 175 | 1.0 | 2.0 | 0.00 | 0.00 | 0.00 | 47 | 1013.1 |
| 20260508224335 | 68 | 141 | 0.0 | 1.0 | 0.00 | 0.00 | 0.00 | 47 | 1013.2 |
| 20260508223833 | 68 | 139 | 0.0 | 0.0 | 0.00 | 0.00 | 0.00 | 46 | 1013.3 |
| 20260508223330 | 68 | 133 | 0.0 | 0.0 | 0.00 | 0.00 | 0.00 | 44 | 1013.5 |
| 20260508222827 | 68 | 184 | 3.0 | 3.0 | 0.00 | 0.00 | 0.00 | 44 | 1013.5 |
| 20260508222324 | 68 | 175 | 1.0 | 1.0 | 0.00 | 0.00 | 0.00 | 45 | 1013.3 |
| 20260508221821 | 68 | 175 | 1.0 | 1.0 | 0.00 | 0.00 | 0.00 | 43 | 1013.7 |
| 20260508221316 | 68 | 340 | 1.0 | 1.0 | 0.00 | 0.00 | 0.00 | 44 | 1013.4 |
| 20260508220813 | 68 | 167 | 2.0 | 3.0 | 0.00 | 0.00 | 0.00 | 43 | 1013.7 |
| 20260508220309 | 68 | 143 | 0.0 | 0.0 | 0.00 | 0.00 | 0.00 | 46 | 1013.7 |
| 20260508215806 | 68 | 176 | 1.0 | 2.0 | 0.00 | 0.00 | 0.00 | 44 | 1013.5 |
| 20260508215306 | 68 | 236 | 1.0 | 1.0 | 0.00 | 0.00 | 0.00 | 45 | 1013.5 |
| 20260508214800 | 68 | 197 | 3.0 | 5.0 | 0.00 | 0.00 | 0.00 | 44 | 1013.7 |
| 20260508214257 | 68 | 131 | 1.0 | 1.0 | 0.00 | 0.00 | 0.00 | 44 | 1013.7 |
| 20260508213753 | 68 | 168 | 1.0 | 1.0 | 0.00 | 0.00 | 0.00 | 41 | 1013.6 |
| 20260508213250 | 68 | 117 | 0.0 | 0.0 | 0.00 | 0.00 | 0.00 | 40 | 1013.7 |
| 20260508212747 | 68 | 184 | 2.0 | 2.0 | 0.00 | 0.00 | 0.00 | 39 | 1013.9 |
| 20260508212243 | 68 | 182 | 1.0 | 1.0 | 0.00 | 0.00 | 0.00 | 41 | 1013.9 |
| 20260508211739 | 68 | 156 | 1.0 | 1.0 | 0.00 | 0.00 | 0.00 | 41 | 1013.9 |
| 20260508211235 | 68 | 125 | 0.0 | 1.0 | 0.00 | 0.00 | 0.00 | 43 | 1013.9 |
| 20260508210732 | 68 | 156 | 1.0 | 1.0 | 0.00 | 0.00 | 0.00 | 41 | 1013.7 |
| 20260508210229 | 68 | 177 | 2.0 | 2.0 | 0.00 | 0.00 | 0.00 | 39 | 1013.7 |
| 20260508205726 | 68 | 162 | 0.0 | 1.0 | 0.00 | 0.00 | 0.00 | 41 | 1013.6 |
| 20260508205222 | 68 | 137 | 0.0 | 0.0 | 0.00 | 0.00 | 0.00 | 40 | 1013.7 |
| 20260508204718 | 68 | 0 | 1.0 | 2.0 | 0.00 | 0.00 | 0.00 | 37 | 1013.7 |
| 20260508204215 | 68 | 145 | 1.0 | 1.0 | 0.00 | 0.00 | 0.00 | 37 | 1013.9 |
| 20260508203711 | 68 | 184 | 2.0 | 3.0 | 0.00 | 0.00 | 0.00 | 39 | 1014.2 |
| 20260508203208 | 68 | 80 | 0.0 | 0.0 | 0.00 | 0.00 | 0.00 | 38 | 1013.6 |
| 20260508202704 | 68 | 17 | 1.0 | 1.0 | 0.00 | 0.00 | 0.00 | 38 | 1013.6 |
| 20260508202201 | 68 | 112 | 0.0 | 0.0 | 0.00 | 0.00 | 0.00 | 38 | 1013.8 |
| 20260508201658 | 68 | 160 | 1.0 | 2.0 | 0.00 | 0.00 | 0.00 | 39 | 1014.0 |
| 20260508201154 | 68 | 175 | 2.0 | 2.0 | 0.00 | 0.00 | 0.00 | 40 | 1013.9 |
| 20260508200651 | 68 | 117 | 0.0 | 1.0 | 0.00 | 0.00 | 0.00 | 41 | 1013.9 |
| 20260508200147 | 68 | 57 | 0.0 | 0.0 | 0.00 | 0.00 | 0.00 | 36 | 1014.2 |
| 20260508195644 | 68 | 126 | 1.0 | 1.0 | 0.00 | 0.00 | 0.00 | 36 | 1014.3 |
| 20260508195141 | 68 | 166 | 1.0 | 1.0 | 0.00 | 0.00 | 0.00 | 39 | 1014.2 |
| 20260508194637 | 68 | 76 | 0.0 | 1.0 | 0.00 | 0.00 | 0.00 | 40 | 1014.5 |
| 20260508194134 | 68 | 84 | 1.0 | 1.0 | 0.00 | 0.00 | 0.00 | 41 | 1014.5 |
| 20260508193631 | 68 | 155 | 2.0 | 2.0 | 0.00 | 0.00 | 0.00 | 40 | 1014.7 |
| 20260508193128 | 67 | 112 | 1.0 | 1.0 | 0.00 | 0.00 | 0.00 | 37 | 1014.8 |
| 20260508192624 | 68 | 193 | 3.0 | 3.0 | 0.00 | 0.00 | 0.00 | 37 | 1015.1 |
| 20260508192121 | 68 | 187 | 3.0 | 3.0 | 0.00 | 0.00 | 0.00 | 38 | 1015.1 |
| 20260508191618 | 68 | 163 | 1.0 | 2.0 | 0.00 | 0.00 | 0.00 | 41 | 1015.3 |
| 20260508191115 | 68 | 139 | 1.0 | 1.0 | 0.00 | 0.00 | 0.00 | 40 | 1015.5 |
| 20260508190613 | 68 | 181 | 2.0 | 2.0 | 0.00 | 0.00 | 0.00 | 40 | 1015.7 |
| 20260508190109 | 68 | 190 | 3.0 | 3.0 | 0.00 | 0.00 | 0.00 | 36 | 1015.7 |
| 20260508185606 | 68 | 151 | 1.0 | 1.0 | 0.00 | 0.00 | 0.00 | 44 | 1015.7 |
| 20260508185103 | 68 | 89 | 3.0 | 5.0 | 0.00 | 0.00 | 0.00 | 42 | 1015.3 |
| 20260508184600 | 69 | 34 | 1.0 | 1.0 | 0.00 | 0.00 | 0.00 | 43 | 1015.5 |
| 20260508184057 | 68 | 28 | 2.0 | 2.0 | 0.00 | 0.00 | 0.00 | 43 | 1015.7 |
| 20260508183554 | 68 | 161 | 3.0 | 3.0 | 0.00 | 0.00 | 0.00 | 42 | 1015.4 |
| 20260508183050 | 68 | 87 | 0.0 | 0.0 | 0.00 | 0.00 | 0.00 | 38 | 1015.7 |
| 20260508182546 | 67 | 195 | 1.0 | 1.0 | 0.00 | 0.00 | 0.00 | 42 | 1015.7 |
| 20260508182043 | 67 | 282 | 1.0 | 1.0 | 0.00 | 0.00 | 0.00 | 40 | 1015.8 |
| 20260508181538 | 67 | 164 | 1.0 | 1.0 | 0.00 | 0.00 | 0.00 | 39 | 1015.8 |
| 20260508181036 | 67 | 181 | 0.0 | 0.0 | 0.00 | 0.00 | 0.00 | 39 | 1015.8 |
| 20260508180532 | 67 | 232 | 1.0 | 1.0 | 0.00 | 0.00 | 0.00 | 39 | 1016.1 |
| 20260508180029 | 67 | 187 | 2.0 | 2.0 | 0.00 | 0.00 | 0.00 | 38 | 1015.9 |
| 20260508175525 | 68 | 174 | 2.0 | 2.0 | 0.00 | 0.00 | 0.00 | 40 | 1016.0 |
| 20260508175023 | 68 | 61 | 1.0 | 1.0 | 0.00 | 0.00 | 0.00 | 36 | 1015.9 |
| 20260508174520 | 66 | 355 | 3.0 | 5.0 | 0.00 | 0.00 | 0.00 | 39 | 1016.1 |
| 20260508174017 | 66 | 179 | 1.0 | 2.0 | 0.00 | 0.00 | 0.00 | 39 | 1016.1 |
| 20260508173514 | 67 | 155 | 2.0 | 2.0 | 0.00 | 0.00 | 0.00 | 41 | 1015.9 |
| 20260508173010 | 68 | 126 | 0.0 | 0.0 | 0.00 | 0.00 | 0.00 | 39 | 1016.2 |
| 20260508172507 | 69 | 167 | 2.0 | 2.0 | 0.00 | 0.00 | 0.00 | 41 | 1016.3 |
| 20260508172004 | 68 | 34 | 1.0 | 2.0 | 0.00 | 0.00 | 0.00 | 39 | 1016.5 |
| 20260508171500 | 67 | 106 | 0.0 | 1.0 | 0.00 | 0.00 | 0.00 | 41 | 1016.6 |
| 20260508170956 | 67 | 130 | 0.0 | 0.0 | 0.00 | 0.00 | 0.00 | 43 | 1016.4 |
| 20260508170454 | 68 | 270 | 1.0 | 1.0 | 0.00 | 0.00 | 0.00 | 43 | 1016.5 |
| 20260508165951 | 66 | 161 | 1.0 | 1.0 | 0.00 | 0.00 | 0.00 | 45 | 1016.8 |
| 20260508165449 | 66 | 184 | 2.0 | 2.0 | 0.00 | 0.00 | 0.00 | 44 | 1016.8 |
| 20260508164944 | 66 | 184 | 1.0 | 2.0 | 0.00 | 0.00 | 0.00 | 44 | 1016.8 |
| 20260508164442 | 64 | 131 | 0.0 | 1.0 | 0.00 | 0.00 | 0.00 | 46 | 1017.1 |
| 20260508163938 | 66 | 92 | 0.0 | 1.0 | 0.00 | 0.00 | 0.00 | 46 | 1017.1 |
| 20260508163437 | 67 | 277 | 1.0 | 1.0 | 0.00 | 0.00 | 0.00 | 44 | 1017.4 |
| 20260508162932 | 65 | 82 | 1.0 | 1.0 | 0.00 | 0.00 | 0.00 | 44 | 1017.2 |
| 20260508162430 | 66 | 7 | 2.0 | 2.0 | 0.00 | 0.00 | 0.00 | 44 | 1017.5 |
| 20260508161926 | 66 | 51 | 1.0 | 1.0 | 0.00 | 0.00 | 0.00 | 47 | 1017.5 |
| 20260508161423 | 66 | 96 | 0.0 | 0.0 | 0.00 | 0.00 | 0.00 | 44 | 1017.7 |
| 20260508160921 | 64 | 62 | 1.0 | 2.0 | 0.00 | 0.00 | 0.00 | 43 | 1017.8 |
| 20260508160420 | 65 | 123 | 2.0 | 2.0 | 0.00 | 0.00 | 0.00 | 41 | 1017.9 |
| 20260508155915 | 65 | 106 | 2.0 | 2.0 | 0.00 | 0.00 | 0.00 | 44 | 1017.7 |
| 20260508155413 | 64 | 119 | 0.0 | 0.0 | 0.00 | 0.00 | 0.00 | 47 | 1017.8 |
| 20260508154909 | 63 | 144 | 2.0 | 2.0 | 0.00 | 0.00 | 0.00 | 46 | 1017.8 |
| 20260508154407 | 63 | 240 | 1.0 | 2.0 | 0.00 | 0.00 | 0.00 | 47 | 1018.0 |
| 20260508153903 | 63 | 64 | 1.0 | 2.0 | 0.00 | 0.00 | 0.00 | 44 | 1018.0 |
| 20260508153401 | 63 | 139 | 1.0 | 1.0 | 0.00 | 0.00 | 0.00 | 46 | 1018.2 |
| 20260508152856 | 64 | 161 | 4.0 | 5.0 | 0.00 | 0.00 | 0.00 | 46 | 1018.1 |
| 20260508152353 | 65 | 44 | 2.0 | 2.0 | 0.00 | 0.00 | 0.00 | 44 | 1018.1 |
| 20260508151849 | 64 | 89 | 0.0 | 0.0 | 0.00 | 0.00 | 0.00 | 48 | 1018.0 |
| 20260508151347 | 63 | 114 | 0.0 | 0.0 | 0.00 | 0.00 | 0.00 | 50 | 1018.1 |
| 20260508150843 | 62 | 168 | 2.0 | 2.0 | 0.00 | 0.00 | 0.00 | 47 | 1018.4 |
| 20260508150340 | 62 | 270 | 1.0 | 2.0 | 0.00 | 0.00 | 0.00 | 49 | 1018.3 |
| 20260508145836 | 63 | 84 | 0.0 | 0.0 | 0.00 | 0.00 | 0.00 | 48 | 1018.3 |
| 20260508145332 | 63 | 198 | 2.0 | 2.0 | 0.00 | 0.00 | 0.00 | 46 | 1018.2 |
| 20260508144829 | 63 | 148 | 0.0 | 1.0 | 0.00 | 0.00 | 0.00 | 50 | 1018.5 |
| 20260508144327 | 64 | 37 | 0.0 | 1.0 | 0.00 | 0.00 | 0.00 | 46 | 1018.5 |
| 20260508143824 | 62 | 47 | 1.0 | 1.0 | 0.00 | 0.00 | 0.00 | 50 | 1018.2 |
| 20260508143321 | 62 | 150 | 0.0 | 1.0 | 0.00 | 0.00 | 0.00 | 60 | 1018.5 |
| 20260508142818 | 62 | 92 | 0.0 | 1.0 | 0.00 | 0.00 | 0.00 | 59 | 1018.1 |
| 20260508142315 | 62 | 121 | 0.0 | 1.0 | 0.00 | 0.00 | 0.00 | 62 | 1018.3 |
| 20260508141811 | 61 | 157 | 1.0 | 2.0 | 0.00 | 0.00 | 0.00 | 66 | 1018.5 |
| 20260508141308 | 60 | 158 | 1.0 | 2.0 | 0.00 | 0.00 | 0.00 | 68 | 1018.8 |
| 20260508140806 | 60 | 168 | 1.0 | 2.0 | 0.00 | 0.00 | 0.00 | 67 | 1018.5 |
| 20260508140302 | 61 | 103 | 0.0 | 0.0 | 0.00 | 0.00 | 0.00 | 69 | 1018.6 |
| 20260508135758 | 60 | 73 | 0.0 | 0.0 | 0.00 | 0.00 | 0.00 | 69 | 1018.9 |
| 20260508135255 | 60 | 82 | 0.0 | 0.0 | 0.00 | 0.00 | 0.00 | 68 | 1018.6 |
| 20260508134750 | 60 | 80 | 1.0 | 2.0 | 0.00 | 0.00 | 0.00 | 67 | 1018.9 |
| 20260508134248 | 60 | 95 | 0.0 | 0.0 | 0.00 | 0.00 | 0.00 | 69 | 1018.8 |
| 20260508133744 | 58 | 93 | 0.0 | 0.0 | 0.00 | 0.00 | 0.00 | 72 | 1018.6 |
| 20260508133242 | 58 | 96 | 0.0 | 1.0 | 0.00 | 0.00 | 0.00 | 72 | 1018.6 |
| 20260508132739 | 59 | 100 | 0.0 | 1.0 | 0.00 | 0.00 | 0.00 | 69 | 1018.4 |
| 20260508132237 | 59 | 81 | 0.0 | 0.0 | 0.00 | 0.00 | 0.00 | 69 | 1018.4 |
| 20260508131732 | 58 | 107 | 1.0 | 1.0 | 0.00 | 0.00 | 0.00 | 73 | 1018.4 |
| 20260508131229 | 57 | 105 | 0.0 | 0.0 | 0.00 | 0.00 | 0.00 | 73 | 1018.4 |
| 20260508130725 | 57 | 105 | 0.0 | 0.0 | 0.00 | 0.00 | 0.00 | 75 | 1018.4 |
| 20260508130223 | 56 | 106 | 0.0 | 0.0 | 0.00 | 0.00 | 0.00 | 76 | 1018.5 |
| 20260508125718 | 56 | 95 | 0.0 | 0.0 | 0.00 | 0.00 | 0.00 | 78 | 1018.6 |
| 20260508125215 | 55 | 82 | 0.0 | 0.0 | 0.00 | 0.00 | 0.00 | 75 | 1018.5 |
| 20260508124713 | 54 | 51 | 2.0 | 2.0 | 0.00 | 0.00 | 0.00 | 73 | 1018.5 |
| 20260508124210 | 55 | 94 | 0.0 | 0.0 | 0.00 | 0.00 | 0.00 | 78 | 1018.4 |
| 20260508123708 | 53 | 48 | 1.0 | 1.0 | 0.00 | 0.00 | 0.00 | 82 | 1018.6 |
| 20260508123206 | 51 | 50 | 0.0 | 1.0 | 0.00 | 0.00 | 0.00 | 87 | 1018.8 |
| 20260508122702 | 49 | 82 | 0.0 | 0.0 | 0.00 | 0.00 | 0.00 | 91 | 1018.9 |
| 20260508122159 | 48 | 83 | 0.0 | 0.0 | 0.00 | 0.00 | 0.00 | 92 | 1018.8 |
| 20260508121656 | 47 | 87 | 0.0 | 0.0 | 0.00 | 0.00 | 0.00 | 95 | 1018.6 |
| 20260508121155 | 46 | 88 | 0.0 | 0.0 | 0.00 | 0.00 | 0.00 | 96 | 1018.6 |
| 20260508120652 | 46 | 88 | 0.0 | 0.0 | 0.00 | 0.00 | 0.00 | 96 | 1018.6 |
| 20260508120150 | 45 | 88 | 0.0 | 0.0 | 0.00 | 0.00 | 0.00 | 97 | 1018.3 |
| 20260508115648 | 44 | 88 | 0.0 | 0.0 | 0.00 | 0.00 | 0.00 | 97 | 1018.4 |
| 20260508115144 | 44 | 88 | 0.0 | 0.0 | 0.00 | 0.00 | 0.00 | 97 | 1018.2 |
| 20260508114641 | 44 | 89 | 0.0 | 0.0 | 0.00 | 0.00 | 0.00 | 97 | 1018.2 |
| 20260508114137 | 44 | 89 | 0.0 | 0.0 | 0.00 | 0.00 | 0.00 | 97 | 1018.2 |
| 20260508113634 | 43 | 90 | 0.0 | 0.0 | 0.00 | 0.00 | 0.00 | 97 | 1017.9 |
| 20260508113133 | 43 | 92 | 0.0 | 0.0 | 0.00 | 0.00 | 0.00 | 97 | 1017.9 |
| 20260508112628 | 43 | 96 | 0.0 | 0.0 | 0.00 | 0.00 | 0.00 | 97 | 1017.9 |
| 20260508112126 | 43 | 97 | 0.0 | 0.0 | 0.00 | 0.00 | 0.00 | 97 | 1017.9 |
| 20260508111622 | 42 | 97 | 0.0 | 0.0 | 0.00 | 0.00 | 0.00 | 97 | 1017.8 |
| 20260508111120 | 42 | 98 | 0.0 | 0.0 | 0.00 | 0.00 | 0.00 | 97 | 1017.7 |
| 20260508110618 | 42 | 88 | 0.0 | 0.0 | 0.00 | 0.00 | 0.00 | 97 | 1017.6 |
| 20260508110114 | 43 | 93 | 0.0 | 0.0 | 0.00 | 0.00 | 0.00 | 97 | 1017.8 |
| 20260508105614 | 42 | 97 | 0.0 | 0.0 | 0.00 | 0.00 | 0.00 | 97 | 1017.5 |
| 20260508105111 | 42 | 97 | 0.0 | 0.0 | 0.00 | 0.00 | 0.00 | 97 | 1017.3 |
| 20260508104609 | 43 | 98 | 0.0 | 0.0 | 0.00 | 0.00 | 0.00 | 96 | 1017.4 |
| 20260508104105 | 43 | 95 | 0.0 | 0.0 | 0.00 | 0.00 | 0.00 | 96 | 1017.3 |
| 20260508103603 | 43 | 96 | 0.0 | 0.0 | 0.00 | 0.00 | 0.00 | 96 | 1017.2 |
| 20260508103100 | 43 | 95 | 0.0 | 0.0 | 0.00 | 0.00 | 0.00 | 96 | 1017.2 |
| 20260508102557 | 43 | 95 | 0.0 | 0.0 | 0.00 | 0.00 | 0.00 | 96 | 1017.3 |
| 20260508102055 | 43 | 94 | 0.0 | 0.0 | 0.00 | 0.00 | 0.00 | 96 | 1017.0 |
| 20260508101552 | 43 | 94 | 0.0 | 0.0 | 0.00 | 0.00 | 0.00 | 95 | 1017.1 |
| 20260508101049 | 43 | 95 | 0.0 | 0.0 | 0.00 | 0.00 | 0.00 | 95 | 1017.0 |
| 20260508100547 | 44 | 95 | 0.0 | 0.0 | 0.00 | 0.00 | 0.00 | 94 | 1017.0 |
| 20260508100043 | 44 | 97 | 0.0 | 0.0 | 0.00 | 0.00 | 0.00 | 94 | 1016.9 |
| 20260508095541 | 44 | 94 | 0.0 | 0.0 | 0.00 | 0.00 | 0.00 | 93 | 1017.0 |
| 20260508095037 | 44 | 94 | 0.0 | 0.0 | 0.00 | 0.00 | 0.00 | 93 | 1017.0 |
| 20260508094535 | 45 | 92 | 0.0 | 0.0 | 0.00 | 0.00 | 0.00 | 92 | 1016.9 |
| 20260508094032 | 45 | 88 | 0.0 | 0.0 | 0.00 | 0.00 | 0.00 | 91 | 1017.0 |
| 20260508093528 | 45 | 89 | 0.0 | 0.0 | 0.00 | 0.00 | 0.00 | 91 | 1017.0 |
| 20260508093026 | 44 | 83 | 0.0 | 0.0 | 0.00 | 0.00 | 0.00 | 92 | 1017.0 |
| 20260508092523 | 44 | 83 | 0.0 | 0.0 | 0.00 | 0.00 | 0.00 | 92 | 1016.8 |
| 20260508092022 | 45 | 77 | 0.0 | 0.0 | 0.00 | 0.00 | 0.00 | 92 | 1016.8 |
| 20260508091519 | 45 | 87 | 0.0 | 0.0 | 0.00 | 0.00 | 0.00 | 92 | 1017.1 |
| 20260508091015 | 45 | 87 | 0.0 | 0.0 | 0.00 | 0.00 | 0.00 | 91 | 1016.7 |
| 20260508090514 | 45 | 87 | 0.0 | 0.0 | 0.00 | 0.00 | 0.00 | 90 | 1016.5 |
| 20260508090010 | 45 | 88 | 0.0 | 0.0 | 0.00 | 0.00 | 0.00 | 89 | 1016.9 |
| 20260508085507 | 45 | 88 | 0.0 | 0.0 | 0.00 | 0.00 | 0.00 | 88 | 1016.7 |
| 20260508085004 | 46 | 88 | 0.0 | 0.0 | 0.00 | 0.00 | 0.00 | 87 | 1016.8 |
| 20260508084501 | 46 | 88 | 0.0 | 0.0 | 0.00 | 0.00 | 0.00 | 86 | 1016.9 |
| 20260508083958 | 46 | 86 | 0.0 | 0.0 | 0.00 | 0.00 | 0.00 | 87 | 1016.7 |
| 20260508083455 | 46 | 87 | 0.0 | 0.0 | 0.00 | 0.00 | 0.00 | 88 | 1016.8 |
| 20260508082950 | 46 | 97 | 0.0 | 0.0 | 0.00 | 0.00 | 0.00 | 88 | 1016.7 |
| 20260508082447 | 46 | 98 | 0.0 | 0.0 | 0.00 | 0.00 | 0.00 | 87 | 1016.5 |
| 20260508081945 | 46 | 103 | 0.0 | 0.0 | 0.00 | 0.00 | 0.00 | 86 | 1016.6 |
| 20260508081442 | 47 | 90 | 0.0 | 0.0 | 0.00 | 0.00 | 0.00 | 86 | 1016.7 |
| 20260508080938 | 47 | 92 | 0.0 | 0.0 | 0.00 | 0.00 | 0.00 | 85 | 1016.7 |
| 20260508080436 | 47 | 90 | 0.0 | 0.0 | 0.00 | 0.00 | 0.00 | 85 | 1016.8 |
| 20260508075933 | 47 | 86 | 0.0 | 0.0 | 0.00 | 0.00 | 0.00 | 85 | 1016.9 |
| 20260508075430 | 47 | 68 | 0.0 | 0.0 | 0.00 | 0.00 | 0.00 | 85 | 1016.8 |
| 20260508074927 | 47 | 72 | 0.0 | 0.0 | 0.00 | 0.00 | 0.00 | 85 | 1016.8 |
| 20260508074425 | 47 | 66 | 0.0 | 0.0 | 0.00 | 0.00 | 0.00 | 87 | 1016.6 |
| 20260508073921 | 47 | 104 | 0.0 | 0.0 | 0.00 | 0.00 | 0.00 | 87 | 1016.7 |
| 20260508073419 | 48 | 104 | 0.0 | 0.0 | 0.00 | 0.00 | 0.00 | 83 | 1016.7 |
| 20260508072916 | 48 | 104 | 0.0 | 0.0 | 0.00 | 0.00 | 0.00 | 82 | 1016.7 |
| 20260508072412 | 48 | 104 | 0.0 | 1.0 | 0.00 | 0.00 | 0.00 | 84 | 1016.8 |
| 20260508071909 | 47 | 81 | 0.0 | 0.0 | 0.00 | 0.00 | 0.00 | 84 | 1016.7 |
| 20260508071408 | 47 | 61 | 0.0 | 0.0 | 0.00 | 0.00 | 0.00 | 85 | 1016.8 |
| 20260508070905 | 47 | 85 | 0.0 | 0.0 | 0.00 | 0.00 | 0.00 | 86 | 1016.6 |
| 20260508070403 | 47 | 86 | 0.0 | 0.0 | 0.00 | 0.00 | 0.00 | 86 | 1016.6 |
| 20260508065900 | 47 | 73 | 0.0 | 0.0 | 0.00 | 0.00 | 0.00 | 87 | 1016.7 |
| 20260508065358 | 47 | 83 | 0.0 | 0.0 | 0.00 | 0.00 | 0.00 | 92 | 1016.7 |
| 20260508064856 | 47 | 88 | 0.0 | 0.0 | 0.00 | 0.00 | 0.00 | 91 | 1016.9 |
| 20260508064353 | 48 | 87 | 0.0 | 0.0 | 0.00 | 0.00 | 0.00 | 90 | 1016.9 |
| 20260508063851 | 48 | 87 | 0.0 | 0.0 | 0.00 | 0.00 | 0.00 | 89 | 1016.6 |
| 20260508063348 | 48 | 85 | 0.0 | 0.0 | 0.00 | 0.00 | 0.00 | 88 | 1016.9 |
| 20260508062845 | 48 | 86 | 0.0 | 0.0 | 0.00 | 0.00 | 0.00 | 89 | 1016.5 |
| 20260508062343 | 48 | 85 | 0.0 | 0.0 | 0.00 | 0.00 | 0.00 | 89 | 1016.7 |
| 20260508061840 | 48 | 95 | 0.0 | 0.0 | 0.00 | 0.00 | 0.00 | 88 | 1016.6 |
| 20260508061337 | 49 | 89 | 0.0 | 0.0 | 0.00 | 0.00 | 0.00 | 89 | 1016.6 |
| 20260508060833 | 49 | 86 | 0.0 | 0.0 | 0.00 | 0.00 | 0.00 | 85 | 1016.8 |
| 20260508060331 | 49 | 65 | 1.0 | 1.0 | 0.00 | 0.00 | 0.00 | 85 | 1016.8 |
| 20260508055826 | 49 | 54 | 0.0 | 0.0 | 0.00 | 0.00 | 0.00 | 86 | 1016.8 |
| 20260508055324 | 48 | 60 | 1.0 | 2.0 | 0.00 | 0.00 | 0.00 | 90 | 1016.5 |
| 20260508054820 | 48 | 85 | 0.0 | 0.0 | 0.00 | 0.00 | 0.00 | 92 | 1016.5 |
| 20260508054318 | 49 | 98 | 0.0 | 0.0 | 0.00 | 0.00 | 0.00 | 92 | 1016.8 |
| 20260508053815 | 48 | 103 | 0.0 | 0.0 | 0.00 | 0.00 | 0.00 | 89 | 1016.5 |
| 20260508053312 | 49 | 106 | 0.0 | 0.0 | 0.00 | 0.00 | 0.00 | 90 | 1016.5 |
| 20260508052809 | 49 | 102 | 0.0 | 0.0 | 0.00 | 0.00 | 0.00 | 89 | 1016.5 |
| 20260508052307 | 49 | 59 | 0.0 | 1.0 | 0.00 | 0.00 | 0.00 | 90 | 1016.7 |
| 20260508051802 | 49 | 37 | 1.0 | 1.0 | 0.00 | 0.00 | 0.00 | 90 | 1016.7 |
| 20260508051258 | 49 | 67 | 0.0 | 1.0 | 0.00 | 0.00 | 0.00 | 90 | 1016.8 |
| 20260508050755 | 49 | 74 | 0.0 | 0.0 | 0.00 | 0.00 | 0.00 | 89 | 1016.8 |
| 20260508050252 | 49 | 89 | 0.0 | 1.0 | 0.00 | 0.00 | 0.00 | 89 | 1016.7 |
| 20260508045747 | 50 | 79 | 0.0 | 0.0 | 0.00 | 0.00 | 0.00 | 89 | 1016.7 |
| 20260508045245 | 50 | 63 | 0.0 | 0.0 | 0.00 | 0.00 | 0.00 | 88 | 1016.8 |
| 20260508044743 | 50 | 77 | 0.0 | 0.0 | 0.00 | 0.00 | 0.00 | 87 | 1016.7 |
| 20260508044240 | 50 | 66 | 0.0 | 1.0 | 0.00 | 0.00 | 0.00 | 88 | 1016.7 |
| 20260508043735 | 50 | 74 | 0.0 | 0.0 | 0.00 | 0.00 | 0.00 | 88 | 1016.5 |
| 20260508043233 | 50 | 83 | 0.0 | 0.0 | 0.00 | 0.00 | 0.00 | 88 | 1016.5 |
| 20260508042729 | 50 | 74 | 0.0 | 0.0 | 0.00 | 0.00 | 0.00 | 88 | 1016.3 |
| 20260508042227 | 50 | 75 | 0.0 | 0.0 | 0.00 | 0.00 | 0.00 | 88 | 1016.5 |
| 20260508041723 | 50 | 66 | 0.0 | 1.0 | 0.00 | 0.00 | 0.00 | 90 | 1016.4 |
| 20260508041220 | 50 | 95 | 0.0 | 0.0 | 0.00 | 0.00 | 0.00 | 91 | 1016.5 |
| 20260508040717 | 50 | 77 | 0.0 | 0.0 | 0.00 | 0.00 | 0.00 | 91 | 1016.4 |
| 20260508040214 | 51 | 85 | 0.0 | 0.0 | 0.00 | 0.00 | 0.00 | 91 | 1016.5 |
| 20260508035711 | 51 | 76 | 0.0 | 0.0 | 0.00 | 0.16 | 0.16 | 90 | 1016.4 |
| 20260508035209 | 51 | 78 | 0.0 | 0.0 | 0.00 | 0.16 | 0.16 | 90 | 1016.4 |
| 20260508034705 | 51 | 82 | 0.0 | 0.0 | 0.00 | 0.16 | 0.16 | 89 | 1016.3 |
| 20260508034202 | 51 | 86 | 0.0 | 0.0 | 0.00 | 0.16 | 0.16 | 88 | 1016.4 |
| 20260508033659 | 51 | 86 | 0.0 | 0.0 | 0.00 | 0.16 | 0.16 | 88 | 1016.3 |
| 20260508033158 | 51 | 63 | 0.0 | 0.0 | 0.00 | 0.16 | 0.16 | 87 | 1016.2 |
| 20260508032654 | 52 | 85 | 0.0 | 0.0 | 0.00 | 0.16 | 0.16 | 87 | 1016.3 |
| 20260508032152 | 52 | 83 | 0.0 | 0.0 | 0.00 | 0.16 | 0.16 | 87 | 1016.4 |
| 20260508031649 | 52 | 63 | 0.0 | 1.0 | 0.00 | 0.16 | 0.16 | 87 | 1016.1 |
| 20260508031145 | 52 | 76 | 0.0 | 0.0 | 0.00 | 0.16 | 0.16 | 87 | 1016.5 |
| 20260508030641 | 53 | 71 | 0.0 | 0.0 | 0.00 | 0.16 | 0.16 | 86 | 1016.3 |
| 20260508030139 | 53 | 81 | 0.0 | 1.0 | 0.00 | 0.16 | 0.16 | 86 | 1016.4 |
| 20260508025635 | 53 | 99 | 0.0 | 0.0 | 0.00 | 0.16 | 0.16 | 86 | 1016.3 |
| 20260508025132 | 53 | 75 | 0.0 | 0.0 | 0.00 | 0.16 | 0.16 | 85 | 1016.3 |
| 20260508024628 | 53 | 85 | 0.0 | 0.0 | 0.00 | 0.16 | 0.16 | 85 | 1016.4 |
| 20260508024126 | 53 | 96 | 0.0 | 0.0 | 0.00 | 0.16 | 0.16 | 85 | 1016.4 |
| 20260508023621 | 54 | 96 | 0.0 | 0.0 | 0.00 | 0.16 | 0.16 | 84 | 1016.4 |
| 20260508023119 | 54 | 89 | 0.0 | 0.0 | 0.00 | 0.16 | 0.16 | 84 | 1016.7 |
| 20260508022615 | 54 | 89 | 0.0 | 0.0 | 0.00 | 0.16 | 0.16 | 82 | 1016.3 |
| 20260508022112 | 54 | 60 | 0.0 | 1.0 | 0.00 | 0.16 | 0.16 | 82 | 1016.3 |
| 20260508021608 | 54 | 83 | 0.0 | 0.0 | 0.00 | 0.16 | 0.16 | 83 | 1016.3 |
| 20260508021104 | 54 | 90 | 0.0 | 0.0 | 0.00 | 0.16 | 0.16 | 81 | 1016.2 |
| 20260508020602 | 55 | 90 | 0.0 | 0.0 | 0.00 | 0.16 | 0.16 | 82 | 1016.2 |
| 20260508020059 | 55 | 95 | 0.0 | 0.0 | 0.00 | 0.16 | 0.16 | 82 | 1016.1 |
| 20260508015557 | 55 | 83 | 0.0 | 0.0 | 0.00 | 0.16 | 0.16 | 82 | 1015.8 |
| 20260508015053 | 55 | 87 | 0.0 | 0.0 | 0.00 | 0.16 | 0.16 | 82 | 1015.7 |
| 20260508014549 | 55 | 88 | 0.0 | 0.0 | 0.00 | 0.16 | 0.16 | 82 | 1015.4 |
| 20260508014046 | 55 | 83 | 0.0 | 0.0 | 0.00 | 0.16 | 0.16 | 82 | 1015.4 |
| 20260508013542 | 55 | 98 | 0.0 | 0.0 | 0.00 | 0.16 | 0.16 | 82 | 1015.4 |
| 20260508013039 | 56 | 97 | 0.0 | 0.0 | 0.00 | 0.16 | 0.16 | 81 | 1015.3 |
| 20260508012536 | 55 | 76 | 0.0 | 0.0 | 0.00 | 0.16 | 0.16 | 82 | 1014.9 |
| 20260508012034 | 56 | 100 | 0.0 | 0.0 | 0.00 | 0.16 | 0.16 | 81 | 1015.0 |
| 20260508011532 | 56 | 93 | 0.0 | 0.0 | 0.00 | 0.16 | 0.16 | 79 | 1015.1 |
| 20260508011029 | 56 | 90 | 0.0 | 0.0 | 0.00 | 0.16 | 0.16 | 80 | 1014.7 |
| 20260508010526 | 56 | 57 | 0.0 | 0.0 | 0.00 | 0.16 | 0.16 | 81 | 1014.6 |
| 20260508010023 | 56 | 92 | 0.0 | 0.0 | 0.00 | 0.16 | 0.16 | 83 | 1014.5 |
| 20260508005520 | 57 | 64 | 0.0 | 0.0 | 0.00 | 0.16 | 0.16 | 83 | 1014.4 |
| 20260508005017 | 57 | 95 | 0.0 | 0.0 | 0.00 | 0.16 | 0.16 | 82 | 1014.6 |
| 20260508004513 | 57 | 77 | 0.0 | 0.0 | 0.00 | 0.16 | 0.16 | 83 | 1014.6 |
| 20260508004010 | 57 | 86 | 0.0 | 0.0 | 0.00 | 0.16 | 0.16 | 82 | 1014.2 |
| 20260508003506 | 58 | 75 | 0.0 | 0.0 | 0.00 | 0.16 | 0.16 | 83 | 1014.3 |
| 20260508003004 | 58 | 96 | 0.0 | 0.0 | 0.00 | 0.16 | 0.16 | 81 | 1014.0 |
| 20260508002459 | 58 | 63 | 1.0 | 1.0 | 0.00 | 0.16 | 0.16 | 78 | 1014.0 |
| 20260508001956 | 58 | 59 | 0.0 | 0.0 | 0.00 | 0.16 | 0.16 | 81 | 1013.9 |
| 20260508001452 | 59 | 83 | 0.0 | 0.0 | 0.00 | 0.16 | 0.16 | 79 | 1014.0 |
| 20260508000949 | 59 | 98 | 0.0 | 0.0 | 0.00 | 0.16 | 0.16 | 78 | 1013.8 |